sensor_id;sensor_type;location;lat;lon;timestamp;P1;durP1;ratioP1;P2;durP2;ratioP2
19038;SDS011;9652;49.014;12.052;2022-09-20T00:00:49;1.83;;;1.50;;
19038;SDS011;9652;49.014;12.052;2022-09-20T00:03:17;1.93;;;1.40;;
19038;SDS011;9652;49.014;12.052;2022-09-20T00:05:44;2.47;;;1.50;;
19038;SDS011;9652;49.014;12.052;2022-09-20T00:08:12;3.13;;;1.50;;
19038;SDS011;9652;49.014;12.052;2022-09-20T00:10:42;1.33;;;1.20;;
19038;SDS011;9652;49.014;12.052;2022-09-20T00:13:10;1.40;;;1.30;;
19038;SDS011;9652;49.014;12.052;2022-09-20T00:15:39;1.37;;;1.33;;
19038;SDS011;9652;49.014;12.052;2022-09-20T00:18:09;3.03;;;1.50;;
19038;SDS011;9652;49.014;12.052;2022-09-20T00:20:43;1.50;;;1.40;;
19038;SDS011;9652;49.014;12.052;2022-09-20T00:23:11;1.30;;;1.20;;
19038;SDS011;9652;49.014;12.052;2022-09-20T00:25:38;2.57;;;2.37;;
19038;SDS011;9652;49.014;12.052;2022-09-20T00:28:05;3.73;;;2.30;;
19038;SDS011;9652;49.014;12.052;2022-09-20T00:30:33;1.57;;;1.47;;
19038;SDS011;9652;49.014;12.052;2022-09-20T00:33:00;1.80;;;1.70;;
19038;SDS011;9652;49.014;12.052;2022-09-20T00:35:29;1.80;;;1.70;;
19038;SDS011;9652;49.014;12.052;2022-09-20T00:37:56;3.23;;;1.57;;
19038;SDS011;9652;49.014;12.052;2022-09-20T00:40:23;1.67;;;1.40;;
19038;SDS011;9652;49.014;12.052;2022-09-20T00:42:52;4.80;;;2.33;;
19038;SDS011;9652;49.014;12.052;2022-09-20T00:45:20;1.53;;;1.43;;
19038;SDS011;9652;49.014;12.052;2022-09-20T00:47:49;1.43;;;1.30;;
19038;SDS011;9652;49.014;12.052;2022-09-20T00:50:25;1.67;;;1.57;;
19038;SDS011;9652;49.014;12.052;2022-09-20T00:53:01;1.87;;;1.77;;
19038;SDS011;9652;49.014;12.052;2022-09-20T00:55:34;1.50;;;1.40;;
19038;SDS011;9652;49.014;12.052;2022-09-20T00:58:05;1.87;;;1.57;;
19038;SDS011;9652;49.014;12.052;2022-09-20T01:00:34;3.70;;;1.83;;
19038;SDS011;9652;49.014;12.052;2022-09-20T01:03:03;1.53;;;1.43;;
19038;SDS011;9652;49.014;12.052;2022-09-20T01:05:37;2.10;;;1.20;;
19038;SDS011;9652;49.014;12.052;2022-09-20T01:08:07;2.87;;;1.50;;
19038;SDS011;9652;49.014;12.052;2022-09-20T01:10:35;1.37;;;1.37;;
19038;SDS011;9652;49.014;12.052;2022-09-20T01:13:03;1.60;;;1.37;;
19038;SDS011;9652;49.014;12.052;2022-09-20T01:15:30;1.50;;;1.40;;
19038;SDS011;9652;49.014;12.052;2022-09-20T01:18:01;1.40;;;1.30;;
19038;SDS011;9652;49.014;12.052;2022-09-20T01:20:32;1.60;;;1.50;;
19038;SDS011;9652;49.014;12.052;2022-09-20T01:23:10;2.07;;;1.47;;
19038;SDS011;9652;49.014;12.052;2022-09-20T01:26:09;1.50;;;1.40;;
19038;SDS011;9652;49.014;12.052;2022-09-20T01:29:07;1.33;;;1.23;;
19038;SDS011;9652;49.014;12.052;2022-09-20T01:31:51;1.50;;;1.40;;
19038;SDS011;9652;49.014;12.052;2022-09-20T01:34:23;1.40;;;1.30;;
19038;SDS011;9652;49.014;12.052;2022-09-20T01:37:00;1.40;;;1.30;;
19038;SDS011;9652;49.014;12.052;2022-09-20T01:39:37;1.47;;;1.40;;
19038;SDS011;9652;49.014;12.052;2022-09-20T01:42:17;2.23;;;1.40;;
19038;SDS011;9652;49.014;12.052;2022-09-20T01:44:54;2.63;;;1.50;;
19038;SDS011;9652;49.014;12.052;2022-09-20T01:47:34;1.83;;;1.73;;
19038;SDS011;9652;49.014;12.052;2022-09-20T01:50:11;2.47;;;1.77;;
19038;SDS011;9652;49.014;12.052;2022-09-20T01:53:05;1.60;;;1.50;;
19038;SDS011;9652;49.014;12.052;2022-09-20T01:56:14;2.00;;;1.80;;
19038;SDS011;9652;49.014;12.052;2022-09-20T02:02:40;1.90;;;1.80;;
19038;SDS011;9652;49.014;12.052;2022-09-20T02:09:12;3.03;;;1.70;;
19038;SDS011;9652;49.014;12.052;2022-09-20T02:12:13;1.60;;;1.50;;
19038;SDS011;9652;49.014;12.052;2022-09-20T02:15:07;1.57;;;1.47;;
19038;SDS011;9652;49.014;12.052;2022-09-20T02:17:53;1.57;;;1.47;;
19038;SDS011;9652;49.014;12.052;2022-09-20T02:20:36;2.17;;;1.70;;
19038;SDS011;9652;49.014;12.052;2022-09-20T02:23:20;1.63;;;1.40;;
19038;SDS011;9652;49.014;12.052;2022-09-20T02:26:14;1.60;;;1.50;;
19038;SDS011;9652;49.014;12.052;2022-09-20T02:29:00;1.57;;;1.40;;
19038;SDS011;9652;49.014;12.052;2022-09-20T02:31:56;1.60;;;1.50;;
19038;SDS011;9652;49.014;12.052;2022-09-20T02:34:48;1.77;;;1.67;;
19038;SDS011;9652;49.014;12.052;2022-09-20T02:40:45;2.27;;;1.60;;
19038;SDS011;9652;49.014;12.052;2022-09-20T02:43:37;2.93;;;1.70;;
19038;SDS011;9652;49.014;12.052;2022-09-20T02:46:16;2.43;;;1.77;;
19038;SDS011;9652;49.014;12.052;2022-09-20T02:48:55;1.90;;;1.60;;
19038;SDS011;9652;49.014;12.052;2022-09-20T02:51:35;4.00;;;1.80;;
19038;SDS011;9652;49.014;12.052;2022-09-20T02:54:13;1.97;;;1.43;;
19038;SDS011;9652;49.014;12.052;2022-09-20T02:56:55;2.73;;;1.40;;
19038;SDS011;9652;49.014;12.052;2022-09-20T02:59:32;1.50;;;1.50;;
19038;SDS011;9652;49.014;12.052;2022-09-20T03:02:12;1.60;;;1.50;;
19038;SDS011;9652;49.014;12.052;2022-09-20T03:04:54;1.73;;;1.63;;
19038;SDS011;9652;49.014;12.052;2022-09-20T03:07:39;3.03;;;1.73;;
19038;SDS011;9652;49.014;12.052;2022-09-20T03:10:26;1.87;;;1.67;;
19038;SDS011;9652;49.014;12.052;2022-09-20T03:13:13;1.70;;;1.60;;
19038;SDS011;9652;49.014;12.052;2022-09-20T03:15:54;1.73;;;1.63;;
19038;SDS011;9652;49.014;12.052;2022-09-20T03:18:35;2.03;;;1.83;;
19038;SDS011;9652;49.014;12.052;2022-09-20T03:21:23;2.43;;;1.77;;
19038;SDS011;9652;49.014;12.052;2022-09-20T03:24:08;5.40;;;1.60;;
19038;SDS011;9652;49.014;12.052;2022-09-20T03:26:50;1.93;;;1.70;;
19038;SDS011;9652;49.014;12.052;2022-09-20T03:29:28;1.60;;;1.50;;
19038;SDS011;9652;49.014;12.052;2022-09-20T03:32:16;1.80;;;1.70;;
19038;SDS011;9652;49.014;12.052;2022-09-20T03:35:12;2.13;;;1.83;;
19038;SDS011;9652;49.014;12.052;2022-09-20T03:38:00;1.90;;;1.80;;
19038;SDS011;9652;49.014;12.052;2022-09-20T03:41:01;1.60;;;1.50;;
19038;SDS011;9652;49.014;12.052;2022-09-20T03:44:07;2.40;;;1.57;;
19038;SDS011;9652;49.014;12.052;2022-09-20T03:46:55;1.60;;;1.50;;
19038;SDS011;9652;49.014;12.052;2022-09-20T03:49:48;3.07;;;1.43;;
19038;SDS011;9652;49.014;12.052;2022-09-20T03:52:36;1.80;;;1.70;;
19038;SDS011;9652;49.014;12.052;2022-09-20T03:55:40;2.83;;;1.67;;
19038;SDS011;9652;49.014;12.052;2022-09-20T03:58:46;2.73;;;1.70;;
19038;SDS011;9652;49.014;12.052;2022-09-20T04:01:36;3.80;;;1.70;;
19038;SDS011;9652;49.014;12.052;2022-09-20T04:04:38;1.70;;;1.50;;
19038;SDS011;9652;49.014;12.052;2022-09-20T04:07:14;1.60;;;1.50;;
19038;SDS011;9652;49.014;12.052;2022-09-20T04:10:02;3.63;;;1.77;;
19038;SDS011;9652;49.014;12.052;2022-09-20T04:13:01;2.63;;;1.80;;
19038;SDS011;9652;49.014;12.052;2022-09-20T04:15:44;1.80;;;1.70;;
19038;SDS011;9652;49.014;12.052;2022-09-20T04:18:27;2.03;;;1.80;;
19038;SDS011;9652;49.014;12.052;2022-09-20T04:21:03;1.80;;;1.70;;
19038;SDS011;9652;49.014;12.052;2022-09-20T04:23:42;1.63;;;1.53;;
19038;SDS011;9652;49.014;12.052;2022-09-20T04:26:19;2.53;;;2.10;;
19038;SDS011;9652;49.014;12.052;2022-09-20T04:28:54;2.20;;;1.80;;
19038;SDS011;9652;49.014;12.052;2022-09-20T04:31:35;1.90;;;1.80;;
19038;SDS011;9652;49.014;12.052;2022-09-20T04:34:11;2.30;;;2.00;;
19038;SDS011;9652;49.014;12.052;2022-09-20T04:39:51;2.50;;;1.80;;
19038;SDS011;9652;49.014;12.052;2022-09-20T04:46:02;1.80;;;1.67;;
19038;SDS011;9652;49.014;12.052;2022-09-20T04:49:38;2.77;;;1.50;;
19038;SDS011;9652;49.014;12.052;2022-09-20T04:52:48;1.53;;;1.37;;
19038;SDS011;9652;49.014;12.052;2022-09-20T04:55:52;1.90;;;1.50;;
19038;SDS011;9652;49.014;12.052;2022-09-20T04:58:37;1.87;;;1.77;;
19038;SDS011;9652;49.014;12.052;2022-09-20T05:01:39;2.00;;;1.90;;
19038;SDS011;9652;49.014;12.052;2022-09-20T05:05:00;2.97;;;1.67;;
19038;SDS011;9652;49.014;12.052;2022-09-20T05:08:21;2.40;;;1.90;;
19038;SDS011;9652;49.014;12.052;2022-09-20T05:11:59;1.73;;;1.63;;
19038;SDS011;9652;49.014;12.052;2022-09-20T05:15:06;3.60;;;2.80;;
19038;SDS011;9652;49.014;12.052;2022-09-20T05:18:01;2.97;;;1.87;;
19038;SDS011;9652;49.014;12.052;2022-09-20T05:21:06;2.50;;;1.90;;
19038;SDS011;9652;49.014;12.052;2022-09-20T05:24:01;2.23;;;1.90;;
19038;SDS011;9652;49.014;12.052;2022-09-20T05:26:50;2.73;;;2.10;;
19038;SDS011;9652;49.014;12.052;2022-09-20T05:29:55;3.07;;;1.90;;
19038;SDS011;9652;49.014;12.052;2022-09-20T05:32:35;2.63;;;1.80;;
19038;SDS011;9652;49.014;12.052;2022-09-20T05:35:18;2.20;;;2.00;;
19038;SDS011;9652;49.014;12.052;2022-09-20T05:38:00;2.20;;;1.97;;
19038;SDS011;9652;49.014;12.052;2022-09-20T05:40:43;3.57;;;2.27;;
19038;SDS011;9652;49.014;12.052;2022-09-20T05:43:32;2.73;;;2.07;;
19038;SDS011;9652;49.014;12.052;2022-09-20T05:46:09;3.63;;;2.70;;
19038;SDS011;9652;49.014;12.052;2022-09-20T05:48:53;3.27;;;2.20;;
19038;SDS011;9652;49.014;12.052;2022-09-20T05:51:32;3.43;;;2.30;;
19038;SDS011;9652;49.014;12.052;2022-09-20T05:54:22;2.60;;;2.40;;
19038;SDS011;9652;49.014;12.052;2022-09-20T05:57:14;3.90;;;2.20;;
19038;SDS011;9652;49.014;12.052;2022-09-20T05:59:58;3.77;;;2.50;;
19038;SDS011;9652;49.014;12.052;2022-09-20T06:02:43;2.57;;;2.33;;
19038;SDS011;9652;49.014;12.052;2022-09-20T06:05:24;3.67;;;2.60;;
19038;SDS011;9652;49.014;12.052;2022-09-20T06:08:14;3.20;;;2.70;;
19038;SDS011;9652;49.014;12.052;2022-09-20T06:11:16;4.70;;;2.80;;
19038;SDS011;9652;49.014;12.052;2022-09-20T06:14:13;2.80;;;2.47;;
19038;SDS011;9652;49.014;12.052;2022-09-20T06:16:57;3.30;;;3.00;;
19038;SDS011;9652;49.014;12.052;2022-09-20T06:19:35;2.60;;;2.10;;
19038;SDS011;9652;49.014;12.052;2022-09-20T06:22:11;3.33;;;2.87;;
19038;SDS011;9652;49.014;12.052;2022-09-20T06:24:47;4.23;;;2.80;;
19038;SDS011;9652;49.014;12.052;2022-09-20T06:27:22;3.97;;;2.70;;
19038;SDS011;9652;49.014;12.052;2022-09-20T06:29:58;3.17;;;2.30;;
19038;SDS011;9652;49.014;12.052;2022-09-20T06:32:30;3.07;;;2.30;;
19038;SDS011;9652;49.014;12.052;2022-09-20T06:34:58;3.20;;;2.57;;
19038;SDS011;9652;49.014;12.052;2022-09-20T06:37:37;5.23;;;2.43;;
19038;SDS011;9652;49.014;12.052;2022-09-20T06:40:32;3.03;;;2.30;;
19038;SDS011;9652;49.014;12.052;2022-09-20T06:43:23;2.80;;;2.23;;
19038;SDS011;9652;49.014;12.052;2022-09-20T06:45:51;2.70;;;2.50;;
19038;SDS011;9652;49.014;12.052;2022-09-20T06:48:18;2.93;;;2.33;;
19038;SDS011;9652;49.014;12.052;2022-09-20T06:50:45;3.70;;;2.37;;
19038;SDS011;9652;49.014;12.052;2022-09-20T06:53:13;3.03;;;2.67;;
19038;SDS011;9652;49.014;12.052;2022-09-20T06:55:46;2.40;;;2.20;;
19038;SDS011;9652;49.014;12.052;2022-09-20T06:58:14;2.33;;;2.17;;
19038;SDS011;9652;49.014;12.052;2022-09-20T07:00:41;8.63;;;2.70;;
19038;SDS011;9652;49.014;12.052;2022-09-20T07:03:08;2.60;;;2.40;;
19038;SDS011;9652;49.014;12.052;2022-09-20T07:05:36;3.67;;;2.50;;
19038;SDS011;9652;49.014;12.052;2022-09-20T07:08:03;3.17;;;2.70;;
19038;SDS011;9652;49.014;12.052;2022-09-20T07:10:31;3.63;;;3.07;;
19038;SDS011;9652;49.014;12.052;2022-09-20T07:13:01;2.63;;;2.43;;
19038;SDS011;9652;49.014;12.052;2022-09-20T07:15:29;2.40;;;2.20;;
19038;SDS011;9652;49.014;12.052;2022-09-20T07:17:58;6.07;;;2.90;;
19038;SDS011;9652;49.014;12.052;2022-09-20T07:20:25;4.03;;;2.33;;
19038;SDS011;9652;49.014;12.052;2022-09-20T07:22:53;4.10;;;2.97;;
19038;SDS011;9652;49.014;12.052;2022-09-20T07:25:20;2.80;;;2.20;;
19038;SDS011;9652;49.014;12.052;2022-09-20T07:27:48;4.70;;;2.20;;
19038;SDS011;9652;49.014;12.052;2022-09-20T07:30:18;2.30;;;2.10;;
19038;SDS011;9652;49.014;12.052;2022-09-20T07:32:46;2.63;;;1.90;;
19038;SDS011;9652;49.014;12.052;2022-09-20T07:35:13;4.80;;;1.90;;
19038;SDS011;9652;49.014;12.052;2022-09-20T07:37:41;2.13;;;1.90;;
19038;SDS011;9652;49.014;12.052;2022-09-20T07:40:09;2.80;;;1.77;;
19038;SDS011;9652;49.014;12.052;2022-09-20T07:42:36;3.60;;;2.03;;
19038;SDS011;9652;49.014;12.052;2022-09-20T07:45:04;3.77;;;1.80;;
19038;SDS011;9652;49.014;12.052;2022-09-20T07:47:34;2.30;;;2.07;;
19038;SDS011;9652;49.014;12.052;2022-09-20T07:50:05;3.23;;;1.53;;
19038;SDS011;9652;49.014;12.052;2022-09-20T07:52:34;3.57;;;2.00;;
19038;SDS011;9652;49.014;12.052;2022-09-20T07:55:01;1.60;;;1.50;;
19038;SDS011;9652;49.014;12.052;2022-09-20T07:57:28;2.00;;;1.50;;
19038;SDS011;9652;49.014;12.052;2022-09-20T08:00:02;2.33;;;1.60;;
19038;SDS011;9652;49.014;12.052;2022-09-20T08:02:39;5.10;;;1.90;;
19038;SDS011;9652;49.014;12.052;2022-09-20T08:05:06;2.60;;;1.70;;
19038;SDS011;9652;49.014;12.052;2022-09-20T08:07:34;4.33;;;1.83;;
19038;SDS011;9652;49.014;12.052;2022-09-20T08:10:02;2.07;;;1.50;;
19038;SDS011;9652;49.014;12.052;2022-09-20T08:12:30;6.33;;;1.50;;
19038;SDS011;9652;49.014;12.052;2022-09-20T08:14:58;3.50;;;1.80;;
19038;SDS011;9652;49.014;12.052;2022-09-20T08:17:25;2.47;;;2.20;;
19038;SDS011;9652;49.014;12.052;2022-09-20T08:19:55;4.77;;;2.13;;
19038;SDS011;9652;49.014;12.052;2022-09-20T08:22:22;3.03;;;1.57;;
19038;SDS011;9652;49.014;12.052;2022-09-20T08:24:49;2.10;;;1.90;;
19038;SDS011;9652;49.014;12.052;2022-09-20T08:27:17;3.17;;;2.40;;
19038;SDS011;9652;49.014;12.052;2022-09-20T08:29:44;3.47;;;2.13;;
19038;SDS011;9652;49.014;12.052;2022-09-20T08:32:11;2.80;;;1.90;;
19038;SDS011;9652;49.014;12.052;2022-09-20T08:34:38;4.13;;;2.00;;
19038;SDS011;9652;49.014;12.052;2022-09-20T08:37:06;3.30;;;1.80;;
19038;SDS011;9652;49.014;12.052;2022-09-20T08:39:34;4.03;;;1.73;;
19038;SDS011;9652;49.014;12.052;2022-09-20T08:42:04;3.90;;;1.73;;
19038;SDS011;9652;49.014;12.052;2022-09-20T08:44:52;2.30;;;1.47;;
19038;SDS011;9652;49.014;12.052;2022-09-20T08:47:24;1.90;;;1.40;;
19038;SDS011;9652;49.014;12.052;2022-09-20T08:49:56;4.00;;;1.97;;
19038;SDS011;9652;49.014;12.052;2022-09-20T08:52:28;2.43;;;1.67;;
19038;SDS011;9652;49.014;12.052;2022-09-20T08:54:59;2.90;;;1.40;;
19038;SDS011;9652;49.014;12.052;2022-09-20T08:57:29;7.37;;;1.93;;
19038;SDS011;9652;49.014;12.052;2022-09-20T09:00:14;4.27;;;1.80;;
19038;SDS011;9652;49.014;12.052;2022-09-20T09:02:43;4.23;;;1.73;;
19038;SDS011;9652;49.014;12.052;2022-09-20T09:05:27;3.40;;;1.47;;
19038;SDS011;9652;49.014;12.052;2022-09-20T09:08:04;5.07;;;1.57;;
19038;SDS011;9652;49.014;12.052;2022-09-20T09:10:40;2.33;;;1.63;;
19038;SDS011;9652;49.014;12.052;2022-09-20T09:13:13;4.50;;;1.43;;
19038;SDS011;9652;49.014;12.052;2022-09-20T09:15:51;1.23;;;1.10;;
19038;SDS011;9652;49.014;12.052;2022-09-20T09:18:27;2.87;;;1.33;;
19038;SDS011;9652;49.014;12.052;2022-09-20T09:21:00;3.23;;;1.33;;
19038;SDS011;9652;49.014;12.052;2022-09-20T09:23:36;1.27;;;1.13;;
19038;SDS011;9652;49.014;12.052;2022-09-20T09:26:13;1.50;;;1.40;;
19038;SDS011;9652;49.014;12.052;2022-09-20T09:28:43;3.10;;;1.03;;
19038;SDS011;9652;49.014;12.052;2022-09-20T09:31:11;3.93;;;1.57;;
19038;SDS011;9652;49.014;12.052;2022-09-20T09:33:47;1.37;;;1.27;;
19038;SDS011;9652;49.014;12.052;2022-09-20T09:36:14;1.83;;;1.50;;
19038;SDS011;9652;49.014;12.052;2022-09-20T09:38:48;3.20;;;1.23;;
19038;SDS011;9652;49.014;12.052;2022-09-20T09:41:20;2.43;;;1.13;;
19038;SDS011;9652;49.014;12.052;2022-09-20T09:43:57;1.30;;;1.10;;
19038;SDS011;9652;49.014;12.052;2022-09-20T09:46:29;3.00;;;1.40;;
19038;SDS011;9652;49.014;12.052;2022-09-20T09:49:05;1.30;;;1.13;;
19038;SDS011;9652;49.014;12.052;2022-09-20T09:51:39;2.83;;;1.00;;
19038;SDS011;9652;49.014;12.052;2022-09-20T09:54:09;2.67;;;1.40;;
19038;SDS011;9652;49.014;12.052;2022-09-20T09:56:44;2.83;;;1.07;;
19038;SDS011;9652;49.014;12.052;2022-09-20T09:59:30;1.80;;;1.00;;
19038;SDS011;9652;49.014;12.052;2022-09-20T10:02:27;2.53;;;1.33;;
19038;SDS011;9652;49.014;12.052;2022-09-20T10:05:20;2.13;;;1.00;;
19038;SDS011;9652;49.014;12.052;2022-09-20T10:07:54;1.53;;;0.90;;
19038;SDS011;9652;49.014;12.052;2022-09-20T10:10:48;1.40;;;0.93;;
19038;SDS011;9652;49.014;12.052;2022-09-20T10:13:31;2.53;;;1.10;;
19038;SDS011;9652;49.014;12.052;2022-09-20T10:16:12;2.87;;;1.27;;
19038;SDS011;9652;49.014;12.052;2022-09-20T10:18:53;2.47;;;1.00;;
19038;SDS011;9652;49.014;12.052;2022-09-20T10:21:35;0.90;;;0.70;;
19038;SDS011;9652;49.014;12.052;2022-09-20T10:24:19;5.50;;;0.93;;
19038;SDS011;9652;49.014;12.052;2022-09-20T10:27:03;2.43;;;0.80;;
19038;SDS011;9652;49.014;12.052;2022-09-20T10:30:03;1.10;;;1.00;;
19038;SDS011;9652;49.014;12.052;2022-09-20T10:32:43;3.70;;;1.00;;
19038;SDS011;9652;49.014;12.052;2022-09-20T10:35:40;2.50;;;1.20;;
19038;SDS011;9652;49.014;12.052;2022-09-20T10:38:23;1.60;;;0.93;;
19038;SDS011;9652;49.014;12.052;2022-09-20T10:41:02;2.17;;;1.20;;
19038;SDS011;9652;49.014;12.052;2022-09-20T10:44:06;1.23;;;1.10;;
19038;SDS011;9652;49.014;12.052;2022-09-20T10:46:47;1.47;;;1.37;;
19038;SDS011;9652;49.014;12.052;2022-09-20T10:49:31;2.63;;;1.43;;
19038;SDS011;9652;49.014;12.052;2022-09-20T10:52:20;2.03;;;1.23;;
19038;SDS011;9652;49.014;12.052;2022-09-20T10:55:09;1.47;;;1.20;;
19038;SDS011;9652;49.014;12.052;2022-09-20T10:57:58;1.27;;;1.13;;
19038;SDS011;9652;49.014;12.052;2022-09-20T11:00:58;1.40;;;1.30;;
19038;SDS011;9652;49.014;12.052;2022-09-20T11:03:52;1.87;;;1.20;;
19038;SDS011;9652;49.014;12.052;2022-09-20T11:06:50;3.23;;;1.77;;
19038;SDS011;9652;49.014;12.052;2022-09-20T11:09:35;2.30;;;1.60;;
19038;SDS011;9652;49.014;12.052;2022-09-20T11:12:09;4.57;;;1.40;;
19038;SDS011;9652;49.014;12.052;2022-09-20T11:14:43;2.67;;;1.10;;
19038;SDS011;9652;49.014;12.052;2022-09-20T11:17:20;3.10;;;1.07;;
19038;SDS011;9652;49.014;12.052;2022-09-20T11:19:54;0.93;;;0.80;;
19038;SDS011;9652;49.014;12.052;2022-09-20T11:22:27;3.70;;;1.30;;
19038;SDS011;9652;49.014;12.052;2022-09-20T11:25:05;2.57;;;1.40;;
19038;SDS011;9652;49.014;12.052;2022-09-20T11:27:41;1.47;;;1.17;;
19038;SDS011;9652;49.014;12.052;2022-09-20T11:30:15;3.67;;;1.10;;
19038;SDS011;9652;49.014;12.052;2022-09-20T11:32:47;2.07;;;1.00;;
19038;SDS011;9652;49.014;12.052;2022-09-20T11:35:26;2.20;;;1.17;;
19038;SDS011;9652;49.014;12.052;2022-09-20T11:38:02;3.27;;;1.10;;
19038;SDS011;9652;49.014;12.052;2022-09-20T11:40:40;2.27;;;0.80;;
19038;SDS011;9652;49.014;12.052;2022-09-20T11:43:13;3.80;;;1.07;;
19038;SDS011;9652;49.014;12.052;2022-09-20T11:45:44;2.43;;;1.00;;
19038;SDS011;9652;49.014;12.052;2022-09-20T11:48:20;1.57;;;0.80;;
19038;SDS011;9652;49.014;12.052;2022-09-20T11:57:32;0.40;;;0.40;;
19038;SDS011;9652;49.014;12.052;2022-09-20T12:00:00;0.47;;;0.47;;
19038;SDS011;9652;49.014;12.052;2022-09-20T12:02:39;1.00;;;0.70;;
19038;SDS011;9652;49.014;12.052;2022-09-20T12:05:24;0.57;;;0.47;;
19038;SDS011;9652;49.014;12.052;2022-09-20T12:07:58;1.17;;;0.73;;
19038;SDS011;9652;49.014;12.052;2022-09-20T12:10:29;0.77;;;0.77;;
19038;SDS011;9652;49.014;12.052;2022-09-20T12:13:02;0.87;;;0.87;;
19038;SDS011;9652;49.014;12.052;2022-09-20T12:15:33;0.90;;;0.90;;
19038;SDS011;9652;49.014;12.052;2022-09-20T12:21:06;1.27;;;1.10;;
19038;SDS011;9652;49.014;12.052;2022-09-20T12:26:47;1.47;;;1.20;;
19038;SDS011;9652;49.014;12.052;2022-09-20T12:32:51;1.80;;;1.07;;
19038;SDS011;9652;49.014;12.052;2022-09-20T12:38:45;1.77;;;1.43;;
19038;SDS011;9652;49.014;12.052;2022-09-20T12:41:24;2.30;;;1.33;;
19038;SDS011;9652;49.014;12.052;2022-09-20T12:43:58;1.23;;;1.13;;
19038;SDS011;9652;49.014;12.052;2022-09-20T12:46:33;2.00;;;1.33;;
19038;SDS011;9652;49.014;12.052;2022-09-20T12:49:11;1.87;;;1.20;;
19038;SDS011;9652;49.014;12.052;2022-09-20T12:52:26;1.33;;;1.20;;
19038;SDS011;9652;49.014;12.052;2022-09-20T12:55:37;1.90;;;1.33;;
19038;SDS011;9652;49.014;12.052;2022-09-20T12:58:21;5.60;;;1.97;;
19038;SDS011;9652;49.014;12.052;2022-09-20T13:10:25;2.63;;;0.70;;
19038;SDS011;9652;49.014;12.052;2022-09-20T13:13:02;1.03;;;0.70;;
19038;SDS011;9652;49.014;12.052;2022-09-20T13:15:48;1.20;;;0.67;;
19038;SDS011;9652;49.014;12.052;2022-09-20T13:18:18;0.83;;;0.60;;
19038;SDS011;9652;49.014;12.052;2022-09-20T13:20:47;1.67;;;0.80;;
19038;SDS011;9652;49.014;12.052;2022-09-20T13:23:18;1.30;;;0.80;;
19038;SDS011;9652;49.014;12.052;2022-09-20T13:25:50;2.23;;;0.90;;
19038;SDS011;9652;49.014;12.052;2022-09-20T13:28:23;1.33;;;0.70;;
19038;SDS011;9652;49.014;12.052;2022-09-20T13:33:52;1.10;;;1.00;;
19038;SDS011;9652;49.014;12.052;2022-09-20T13:36:24;1.07;;;0.97;;
19038;SDS011;9652;49.014;12.052;2022-09-20T13:38:57;1.20;;;1.10;;
19038;SDS011;9652;49.014;12.052;2022-09-20T13:41:26;1.33;;;1.07;;
19038;SDS011;9652;49.014;12.052;2022-09-20T13:43:56;0.83;;;0.83;;
19038;SDS011;9652;49.014;12.052;2022-09-20T13:46:27;0.90;;;0.90;;
19038;SDS011;9652;49.014;12.052;2022-09-20T13:49:12;1.33;;;1.23;;
19038;SDS011;9652;49.014;12.052;2022-09-20T13:51:45;1.03;;;1.03;;
19038;SDS011;9652;49.014;12.052;2022-09-20T13:54:18;0.93;;;0.90;;
19038;SDS011;9652;49.014;12.052;2022-09-20T13:56:51;1.50;;;1.40;;
19038;SDS011;9652;49.014;12.052;2022-09-20T13:59:21;1.40;;;1.17;;
19038;SDS011;9652;49.014;12.052;2022-09-20T14:01:50;1.17;;;1.00;;
19038;SDS011;9652;49.014;12.052;2022-09-20T14:04:20;1.50;;;1.40;;
19038;SDS011;9652;49.014;12.052;2022-09-20T14:06:52;0.80;;;0.80;;
19038;SDS011;9652;49.014;12.052;2022-09-20T14:09:25;2.17;;;1.10;;
19038;SDS011;9652;49.014;12.052;2022-09-20T14:11:56;1.40;;;1.30;;
19038;SDS011;9652;49.014;12.052;2022-09-20T14:14:25;1.13;;;1.03;;
19038;SDS011;9652;49.014;12.052;2022-09-20T14:16:54;1.93;;;1.13;;
19038;SDS011;9652;49.014;12.052;2022-09-20T14:19:24;1.03;;;1.03;;
19038;SDS011;9652;49.014;12.052;2022-09-20T14:21:56;1.23;;;0.80;;
19038;SDS011;9652;49.014;12.052;2022-09-20T14:24:30;0.80;;;0.80;;
19038;SDS011;9652;49.014;12.052;2022-09-20T14:27:02;1.37;;;0.90;;
19038;SDS011;9652;49.014;12.052;2022-09-20T14:29:46;0.70;;;0.70;;
19038;SDS011;9652;49.014;12.052;2022-09-20T14:32:23;0.73;;;0.67;;
19038;SDS011;9652;49.014;12.052;2022-09-20T14:35:05;0.80;;;0.67;;
19038;SDS011;9652;49.014;12.052;2022-09-20T14:37:41;0.60;;;0.60;;
19038;SDS011;9652;49.014;12.052;2022-09-20T14:40:18;0.80;;;0.80;;
19038;SDS011;9652;49.014;12.052;2022-09-20T14:42:49;2.73;;;0.80;;
19038;SDS011;9652;49.014;12.052;2022-09-20T14:45:22;1.93;;;1.37;;
19038;SDS011;9652;49.014;12.052;2022-09-20T14:47:58;0.67;;;0.60;;
19038;SDS011;9652;49.014;12.052;2022-09-20T14:50:29;4.10;;;0.93;;
19038;SDS011;9652;49.014;12.052;2022-09-20T14:55:56;1.03;;;0.53;;
19038;SDS011;9652;49.014;12.052;2022-09-20T14:58:33;1.47;;;0.80;;
19038;SDS011;9652;49.014;12.052;2022-09-20T15:01:30;0.87;;;0.80;;
19038;SDS011;9652;49.014;12.052;2022-09-20T15:04:04;1.00;;;0.73;;
19038;SDS011;9652;49.014;12.052;2022-09-20T15:06:34;1.93;;;0.90;;
19038;SDS011;9652;49.014;12.052;2022-09-20T15:09:04;0.80;;;0.80;;
19038;SDS011;9652;49.014;12.052;2022-09-20T15:11:32;1.90;;;0.90;;
19038;SDS011;9652;49.014;12.052;2022-09-20T15:13:59;1.40;;;0.90;;
19038;SDS011;9652;49.014;12.052;2022-09-20T15:16:27;1.87;;;1.27;;
19038;SDS011;9652;49.014;12.052;2022-09-20T15:18:55;0.50;;;0.50;;
19038;SDS011;9652;49.014;12.052;2022-09-20T15:21:22;2.40;;;0.77;;
19038;SDS011;9652;49.014;12.052;2022-09-20T15:23:49;0.97;;;0.73;;
19038;SDS011;9652;49.014;12.052;2022-09-20T15:26:17;0.80;;;0.70;;
19038;SDS011;9652;49.014;12.052;2022-09-20T15:28:46;0.60;;;0.60;;
19038;SDS011;9652;49.014;12.052;2022-09-20T15:31:14;1.17;;;0.60;;
19038;SDS011;9652;49.014;12.052;2022-09-20T15:33:44;1.47;;;0.80;;
19038;SDS011;9652;49.014;12.052;2022-09-20T15:36:11;0.60;;;0.60;;
19038;SDS011;9652;49.014;12.052;2022-09-20T15:38:38;1.73;;;0.93;;
19038;SDS011;9652;49.014;12.052;2022-09-20T15:41:05;0.87;;;0.70;;
19038;SDS011;9652;49.014;12.052;2022-09-20T15:43:32;0.70;;;0.70;;
19038;SDS011;9652;49.014;12.052;2022-09-20T15:46:00;1.13;;;0.83;;
19038;SDS011;9652;49.014;12.052;2022-09-20T15:48:44;0.77;;;0.77;;
19038;SDS011;9652;49.014;12.052;2022-09-20T15:51:12;1.07;;;0.70;;
19038;SDS011;9652;49.014;12.052;2022-09-20T15:53:40;1.23;;;0.70;;
19038;SDS011;9652;49.014;12.052;2022-09-20T15:56:13;1.33;;;0.93;;
19038;SDS011;9652;49.014;12.052;2022-09-20T15:58:45;0.60;;;0.60;;
19038;SDS011;9652;49.014;12.052;2022-09-20T16:01:14;0.90;;;0.90;;
19038;SDS011;9652;49.014;12.052;2022-09-20T16:03:45;0.80;;;0.80;;
19038;SDS011;9652;49.014;12.052;2022-09-20T16:06:13;1.17;;;1.07;;
19038;SDS011;9652;49.014;12.052;2022-09-20T16:08:40;1.00;;;1.00;;
19038;SDS011;9652;49.014;12.052;2022-09-20T16:11:09;1.03;;;1.03;;
19038;SDS011;9652;49.014;12.052;2022-09-20T16:13:39;1.00;;;1.00;;
19038;SDS011;9652;49.014;12.052;2022-09-20T16:16:07;1.63;;;0.93;;
19038;SDS011;9652;49.014;12.052;2022-09-20T16:18:38;1.37;;;1.00;;
19038;SDS011;9652;49.014;12.052;2022-09-20T16:21:24;1.20;;;1.10;;
19038;SDS011;9652;49.014;12.052;2022-09-20T16:23:51;2.90;;;1.23;;
19038;SDS011;9652;49.014;12.052;2022-09-20T16:26:21;2.40;;;1.30;;
19038;SDS011;9652;49.014;12.052;2022-09-20T16:28:49;2.33;;;1.80;;
19038;SDS011;9652;49.014;12.052;2022-09-20T16:31:28;1.10;;;1.00;;
19038;SDS011;9652;49.014;12.052;2022-09-20T16:34:08;1.00;;;1.00;;
19038;SDS011;9652;49.014;12.052;2022-09-20T16:36:42;1.30;;;1.20;;
19038;SDS011;9652;49.014;12.052;2022-09-20T16:39:10;1.17;;;1.10;;
19038;SDS011;9652;49.014;12.052;2022-09-20T16:41:39;1.43;;;1.33;;
19038;SDS011;9652;49.014;12.052;2022-09-20T16:44:07;1.40;;;1.30;;